sensor_id;sensor_type;location;lat;lon;timestamp;pressure;altitude;pressure_sealevel;temperature;humidity
1776;BME280;885;42.626;23.200;2023-07-13T00:00:09;159331.16;;;20.05;97.68
1776;BME280;885;42.626;23.200;2023-07-13T00:02:36;159337.63;;;20.07;98.68
1776;BME280;885;42.626;23.200;2023-07-13T00:05:03;159335.06;;;20.06;97.10
1776;BME280;885;42.626;23.200;2023-07-13T00:07:32;159335.06;;;20.06;97.13
1776;BME280;885;42.626;23.200;2023-07-13T00:09:58;159722.88;;;20.11;98.60
1776;BME280;885;42.626;23.200;2023-07-13T00:12:28;159726.75;;;20.12;98.80
1776;BME280;885;42.626;23.200;2023-07-13T00:14:56;158964.13;;;20.08;94.79
1776;BME280;885;42.626;23.200;2023-07-13T00:17:24;159349.25;;;20.12;95.67
1776;BME280;885;42.626;23.200;2023-07-13T00:19:51;159344.09;;;20.10;96.04
1776;BME280;885;42.626;23.200;2023-07-13T00:22:18;159323.41;;;20.02;97.49
1776;BME280;885;42.626;23.200;2023-07-13T00:24:46;159703.41;;;20.03;99.04
1776;BME280;885;42.626;23.200;2023-07-13T00:27:14;159700.81;;;20.02;99.60
1776;BME280;885;42.626;23.200;2023-07-13T00:29:40;158934.44;;;19.97;94.34
1776;BME280;885;42.626;23.200;2023-07-13T00:32:08;158558.41;;;19.97;92.27
1776;BME280;885;42.626;23.200;2023-07-13T00:34:37;158930.56;;;19.95;96.40
1776;BME280;885;42.626;23.200;2023-07-13T00:37:04;159690.47;;;19.98;98.76
1776;BME280;885;42.626;23.200;2023-07-13T00:39:33;159693.03;;;19.99;99.03
1776;BME280;885;42.626;23.200;2023-07-13T00:42:02;159296.25;;;19.91;96.88
1776;BME280;885;42.626;23.200;2023-07-13T00:44:29;159664.50;;;19.88;99.66
1776;BME280;885;42.626;23.200;2023-07-13T00:46:56;159664.50;;;19.88;100.00
1776;BME280;885;42.626;23.200;2023-07-13T00:49:26;159664.50;;;19.88;98.50
1776;BME280;885;42.626;23.200;2023-07-13T00:51:57;159650.25;;;19.83;98.76
1776;BME280;885;42.626;23.200;2023-07-13T00:54:29;159638.59;;;19.78;100.00
1776;BME280;885;42.626;23.200;2023-07-13T00:57:03;160028.84;;;19.83;100.00
1776;BME280;885;42.626;23.200;2023-07-13T00:59:31;160045.75;;;19.90;99.75
1776;BME280;885;42.626;23.200;2023-07-13T01:01:58;160058.75;;;19.95;99.16
1776;BME280;885;42.626;23.200;2023-07-13T01:04:25;160053.56;;;19.93;100.00
1776;BME280;885;42.626;23.200;2023-07-13T01:06:52;160050.94;;;19.92;99.69
1776;BME280;885;42.626;23.200;2023-07-13T01:09:20;160062.66;;;19.97;98.70
1776;BME280;885;42.626;23.200;2023-07-13T01:11:47;159300.13;;;19.93;95.75
1776;BME280;885;42.626;23.200;2023-07-13T01:14:16;160048.38;;;19.91;98.35
1776;BME280;885;42.626;23.200;2023-07-13T01:16:45;160035.34;;;19.86;100.00
1776;BME280;885;42.626;23.200;2023-07-13T01:19:24;160040.56;;;19.88;100.00
1776;BME280;885;42.626;23.200;2023-07-13T01:21:56;160030.16;;;19.84;100.00
1776;BME280;885;42.626;23.200;2023-07-13T01:24:23;160009.38;;;19.76;100.00
1776;BME280;885;42.626;23.200;2023-07-13T01:26:51;160027.59;;;19.83;99.34
1776;BME280;885;42.626;23.200;2023-07-13T01:29:17;160419.28;;;19.89;100.00
1776;BME280;885;42.626;23.200;2023-07-13T01:31:44;160034.09;;;19.86;98.76
1776;BME280;885;42.626;23.200;2023-07-13T01:34:11;160009.38;;;19.76;98.81
1776;BME280;885;42.626;23.200;2023-07-13T01:36:38;160402.34;;;19.83;100.00
1776;BME280;885;42.626;23.200;2023-07-13T01:39:06;160428.38;;;19.93;99.45
1776;BME280;885;42.626;23.200;2023-07-13T01:41:33;160416.63;;;19.88;100.00
1776;BME280;885;42.626;23.200;2023-07-13T01:44:00;160039.28;;;19.88;98.09
1776;BME280;885;42.626;23.200;2023-07-13T01:46:27;160440.09;;;19.97;98.99
1776;BME280;885;42.626;23.200;2023-07-13T01:48:53;160434.88;;;19.95;98.80
1776;BME280;885;42.626;23.200;2023-07-13T01:51:20;159673.59;;;19.92;94.81
1776;BME280;885;42.626;23.200;2023-07-13T01:53:47;159301.44;;;19.93;92.71
1776;BME280;885;42.626;23.200;2023-07-13T01:56:16;159294.94;;;19.91;92.59
1776;BME280;885;42.626;23.200;2023-07-13T01:58:44;158917.66;;;19.90;92.01
1776;BME280;885;42.626;23.200;2023-07-13T02:01:11;158916.41;;;19.90;92.23
1776;BME280;885;42.626;23.200;2023-07-13T02:03:38;159305.28;;;19.95;94.94
1776;BME280;885;42.626;23.200;2023-07-13T02:06:04;159681.34;;;19.95;96.22
1776;BME280;885;42.626;23.200;2023-07-13T02:08:32;159683.97;;;19.96;94.65
1776;BME280;885;42.626;23.200;2023-07-13T02:10:59;158922.81;;;19.92;92.39
1776;BME280;885;42.626;23.200;2023-07-13T02:13:27;159694.34;;;20.00;95.56
1776;BME280;885;42.626;23.200;2023-07-13T02:15:54;158938.31;;;19.98;91.55
1776;BME280;885;42.626;23.200;2023-07-13T02:18:21;160076.97;;;20.02;97.79
1776;BME280;885;42.626;23.200;2023-07-13T02:20:48;160441.41;;;19.98;100.00
1776;BME280;885;42.626;23.200;2023-07-13T02:23:15;159669.69;;;19.90;96.51
1776;BME280;885;42.626;23.200;2023-07-13T02:25:41;159671.00;;;19.91;95.04
1776;BME280;885;42.626;23.200;2023-07-13T02:28:08;158911.25;;;19.88;91.52
1776;BME280;885;42.626;23.200;2023-07-13T02:30:36;158917.66;;;19.90;92.47
1776;BME280;885;42.626;23.200;2023-07-13T02:33:05;159302.72;;;19.94;94.75
1776;BME280;885;42.626;23.200;2023-07-13T02:35:32;160050.94;;;19.92;99.69
1776;BME280;885;42.626;23.200;2023-07-13T02:37:58;160032.78;;;19.85;98.98
1776;BME280;885;42.626;23.200;2023-07-13T02:40:25;159646.38;;;19.81;97.71
1776;BME280;885;42.626;23.200;2023-07-13T02:42:52;160411.44;;;19.86;100.00
1776;BME280;885;42.626;23.200;2023-07-13T02:45:19;159265.25;;;19.79;95.25
1776;BME280;885;42.626;23.200;2023-07-13T02:47:47;159646.38;;;19.81;97.48
1776;BME280;885;42.626;23.200;2023-07-13T02:50:14;159658.06;;;19.86;97.19
1776;BME280;885;42.626;23.200;2023-07-13T02:52:40;160037.97;;;19.87;97.47
1776;BME280;885;42.626;23.200;2023-07-13T02:55:08;160794.09;;;19.89;100.00
1776;BME280;885;42.626;23.200;2023-07-13T02:57:35;160795.41;;;19.89;100.00
1776;BME280;885;42.626;23.200;2023-07-13T03:00:03;160778.41;;;19.83;100.00
1776;BME280;885;42.626;23.200;2023-07-13T03:02:31;161145.41;;;19.79;100.00
1776;BME280;885;42.626;23.200;2023-07-13T03:05:00;161119.19;;;19.69;100.00
1776;BME280;885;42.626;23.200;2023-07-13T03:07:29;160743.13;;;19.69;100.00
1776;BME280;885;42.626;23.200;2023-07-13T03:09:59;161124.47;;;19.71;100.00
1776;BME280;885;42.626;23.200;2023-07-13T03:12:26;161500.53;;;19.71;100.00
1776;BME280;885;42.626;23.200;2023-07-13T03:14:52;161108.72;;;19.65;100.00
1776;BME280;885;42.626;23.200;2023-07-13T03:17:19;161491.31;;;19.67;100.00
1776;BME280;885;42.626;23.200;2023-07-13T03:19:46;161898.97;;;19.79;100.00
1776;BME280;885;42.626;23.200;2023-07-13T03:22:16;161501.81;;;19.71;100.00
1776;BME280;885;42.626;23.200;2023-07-13T03:24:43;161892.44;;;19.77;100.00
1776;BME280;885;42.626;23.200;2023-07-13T03:27:10;161503.13;;;19.72;100.00
1776;BME280;885;42.626;23.200;2023-07-13T03:29:37;161120.50;;;19.69;99.19
1776;BME280;885;42.626;23.200;2023-07-13T03:32:04;160758.84;;;19.75;98.02
1776;BME280;885;42.626;23.200;2023-07-13T03:34:31;160757.53;;;19.74;97.57
1776;BME280;885;42.626;23.200;2023-07-13T03:36:58;160797.97;;;19.90;95.68
1776;BME280;885;42.626;23.200;2023-07-13T03:39:26;161189.84;;;19.96;96.93
1776;BME280;885;42.626;23.200;2023-07-13T03:41:54;161196.41;;;19.99;97.12
1776;BME280;885;42.626;23.200;2023-07-13T03:44:20;161584.47;;;20.03;98.48
1776;BME280;885;42.626;23.200;2023-07-13T03:46:47;161981.84;;;20.11;99.74
1776;BME280;885;42.626;23.200;2023-07-13T03:49:14;161983.16;;;20.12;100.00
1776;BME280;885;42.626;23.200;2023-07-13T03:51:41;161960.78;;;20.03;100.00
1776;BME280;885;42.626;23.200;2023-07-13T03:54:08;161992.34;;;20.15;99.42
1776;BME280;885;42.626;23.200;2023-07-13T03:56:36;161973.97;;;20.08;100.00
1776;BME280;885;42.626;23.200;2023-07-13T03:59:03;161597.63;;;20.08;97.02
1776;BME280;885;42.626;23.200;2023-07-13T04:01:30;161214.75;;;20.06;97.03
1776;BME280;885;42.626;23.200;2023-07-13T04:03:57;161213.44;;;20.05;97.60
1776;BME280;885;42.626;23.200;2023-07-13T04:06:26;161597.63;;;20.08;98.75
1776;BME280;885;42.626;23.200;2023-07-13T04:08:56;161591.06;;;20.06;98.75
1776;BME280;885;42.626;23.200;2023-07-13T04:11:25;161573.97;;;19.99;100.00
1776;BME280;885;42.626;23.200;2023-07-13T04:13:54;161955.53;;;20.01;100.00
1776;BME280;885;42.626;23.200;2023-07-13T04:16:21;162339.81;;;20.04;100.00
1776;BME280;885;42.626;23.200;2023-07-13T04:18:49;162737.34;;;20.12;100.00
1776;BME280;885;42.626;23.200;2023-07-13T04:21:16;163135.06;;;20.20;100.00
1776;BME280;885;42.626;23.200;2023-07-13T04:23:43;163135.06;;;20.20;100.00
1776;BME280;885;42.626;23.200;2023-07-13T04:26:10;163496.97;;;20.15;100.00
1776;BME280;885;42.626;23.200;2023-07-13T04:28:37;163495.66;;;20.14;100.00
1776;BME280;885;42.626;23.200;2023-07-13T04:31:05;162349.03;;;20.08;100.00
1776;BME280;885;42.626;23.200;2023-07-13T04:33:32;163109.88;;;20.11;100.00
1776;BME280;885;42.626;23.200;2023-07-13T04:35:59;162737.34;;;20.12;100.00
1776;BME280;885;42.626;23.200;2023-07-13T04:38:29;163132.34;;;20.19;100.00
1776;BME280;885;42.626;23.200;2023-07-13T04:40:59;163905.53;;;20.27;100.00
1776;BME280;885;42.626;23.200;2023-07-13T04:43:27;164286.19;;;20.28;100.00
1776;BME280;885;42.626;23.200;2023-07-13T04:45:54;164310.25;;;20.37;100.00
1776;BME280;885;42.626;23.200;2023-07-13T04:48:23;164708.41;;;20.45;100.00
1776;BME280;885;42.626;23.200;2023-07-13T04:50:54;165096.00;;;20.49;100.00
1776;BME280;885;42.626;23.200;2023-07-13T04:53:22;164703.06;;;20.43;100.00
1776;BME280;885;42.626;23.200;2023-07-13T04:55:49;164724.47;;;20.51;100.00
1776;BME280;885;42.626;23.200;2023-07-13T04:58:16;164743.22;;;20.58;100.00
1776;BME280;885;42.626;23.200;2023-07-13T05:00:43;164760.63;;;20.65;100.00
1776;BME280;885;42.626;23.200;2023-07-13T05:03:10;165148.31;;;20.69;100.00
1776;BME280;885;42.626;23.200;2023-07-13T05:05:38;165534.75;;;20.73;100.00
1776;BME280;885;42.626;23.200;2023-07-13T05:08:05;165536.09;;;20.73;100.00
1776;BME280;885;42.626;23.200;2023-07-13T05:10:32;165930.75;;;20.80;100.00
1776;BME280;885;42.626;23.200;2023-07-13T05:12:59;165964.44;;;20.92;100.00
1776;BME280;885;42.626;23.200;2023-07-13T05:15:27;166380.94;;;21.07;100.00
1776;BME280;885;42.626;23.200;2023-07-13T05:17:53;166784.00;;;21.16;100.00
1776;BME280;885;42.626;23.200;2023-07-13T05:20:20;166809.78;;;21.26;100.00
1776;BME280;885;42.626;23.200;2023-07-13T05:22:49;167203.59;;;21.32;100.00
1776;BME280;885;42.626;23.200;2023-07-13T05:25:16;167234.81;;;21.44;100.00
1776;BME280;885;42.626;23.200;2023-07-13T05:27:43;166873.41;;;21.50;100.00
1776;BME280;885;42.626;23.200;2023-07-13T05:30:11;166912.69;;;21.64;100.00
1776;BME280;885;42.626;23.200;2023-07-13T05:32:38;166947.94;;;21.77;100.00
1776;BME280;885;42.626;23.200;2023-07-13T05:35:05;167355.75;;;21.88;100.00
1776;BME280;885;42.626;23.200;2023-07-13T05:37:32;167372.03;;;21.94;100.00
1776;BME280;885;42.626;23.200;2023-07-13T05:40:00;167370.66;;;21.94;100.00
1776;BME280;885;42.626;23.200;2023-07-13T05:42:27;167396.50;;;22.03;100.00
1776;BME280;885;42.626;23.200;2023-07-13T05:44:56;167799.03;;;22.12;100.00
1776;BME280;885;42.626;23.200;2023-07-13T05:47:23;167815.38;;;22.19;100.00
1776;BME280;885;42.626;23.200;2023-07-13T05:49:50;167841.28;;;22.28;100.00
1776;BME280;885;42.626;23.200;2023-07-13T05:52:19;167861.69;;;22.36;100.00
1776;BME280;885;42.626;23.200;2023-07-13T05:54:46;167890.28;;;22.46;99.34
1776;BME280;885;42.626;23.200;2023-07-13T05:57:14;167918.91;;;22.57;99.63
1776;BME280;885;42.626;23.200;2023-07-13T05:59:41;168308.28;;;22.61;100.00
1776;BME280;885;42.626;23.200;2023-07-13T06:02:09;168324.66;;;22.67;100.00
1776;BME280;885;42.626;23.200;2023-07-13T06:04:36;168723.75;;;22.74;100.00
1776;BME280;885;42.626;23.200;2023-07-13T06:07:06;168778.50;;;22.95;100.00
1776;BME280;885;42.626;23.200;2023-07-13T06:09:33;169298.59;;;23.46;98.03
1776;BME280;885;42.626;23.200;2023-07-13T06:12:00;169852.50;;;24.10;94.51
1776;BME280;885;42.626;23.200;2023-07-13T06:14:28;169974.97;;;24.55;90.53
1776;BME280;885;42.626;23.200;2023-07-13T06:16:55;170423.84;;;24.80;89.58
1776;BME280;885;42.626;23.200;2023-07-13T06:19:22;170414.22;;;24.77;91.10
1776;BME280;885;42.626;23.200;2023-07-13T06:21:48;169999.78;;;24.64;89.78
1776;BME280;885;42.626;23.200;2023-07-13T06:24:15;169994.25;;;24.62;89.24
1776;BME280;885;42.626;23.200;2023-07-13T06:26:42;169999.78;;;24.64;90.49
1776;BME280;885;42.626;23.200;2023-07-13T06:29:09;170017.66;;;24.71;91.69
1776;BME280;885;42.626;23.200;2023-07-13T06:31:37;170452.81;;;24.91;90.45
1776;BME280;885;42.626;23.200;2023-07-13T06:34:04;170495.63;;;25.06;91.74
1776;BME280;885;42.626;23.200;2023-07-13T06:36:30;170888.28;;;25.11;93.15
1776;BME280;885;42.626;23.200;2023-07-13T06:38:57;170928.41;;;25.26;91.74
1776;BME280;885;42.626;23.200;2023-07-13T06:41:24;171522.38;;;26.03;88.32
1776;BME280;885;42.626;23.200;2023-07-13T06:43:51;172081.31;;;26.67;85.28
1776;BME280;885;42.626;23.200;2023-07-13T06:46:20;172733.28;;;27.65;81.03
1776;BME280;885;42.626;23.200;2023-07-13T06:48:48;172937.06;;;28.39;78.08
1776;BME280;885;42.626;23.200;2023-07-13T06:51:15;172984.50;;;28.56;76.46
1776;BME280;885;42.626;23.200;2023-07-13T06:53:42;172875.66;;;28.16;76.35
1776;BME280;885;42.626;23.200;2023-07-13T06:56:10;172419.59;;;27.90;78.40
1776;BME280;885;42.626;23.200;2023-07-13T06:58:37;172224.66;;;27.19;81.91
1776;BME280;885;42.626;23.200;2023-07-13T07:01:04;171714.00;;;26.72;86.27
1776;BME280;885;42.626;23.200;2023-07-13T07:03:31;171611.19;;;26.35;88.79
1776;BME280;885;42.626;23.200;2023-07-13T07:06:10;171580.72;;;26.24;88.08
1776;BME280;885;42.626;23.200;2023-07-13T07:08:38;171609.84;;;26.35;88.19
1776;BME280;885;42.626;23.200;2023-07-13T07:11:05;171634.81;;;26.44;85.17
1776;BME280;885;42.626;23.200;2023-07-13T07:13:32;171636.19;;;26.44;88.63
1776;BME280;885;42.626;23.200;2023-07-13T07:15:59;171620.94;;;26.39;85.75
1776;BME280;885;42.626;23.200;2023-07-13T07:18:26;171677.84;;;26.59;82.97
1776;BME280;885;42.626;23.200;2023-07-13T07:20:53;171719.53;;;26.74;86.12
1776;BME280;885;42.626;23.200;2023-07-13T07:23:21;171727.84;;;26.77;86.51
1776;BME280;885;42.626;23.200;2023-07-13T07:25:48;172127.28;;;26.84;86.70
1776;BME280;885;42.626;23.200;2023-07-13T07:28:15;171812.56;;;27.08;81.66
1776;BME280;885;42.626;23.200;2023-07-13T07:30:43;171875.00;;;27.31;75.66
1776;BME280;885;42.626;23.200;2023-07-13T07:33:11;172312.38;;;27.51;79.55
1776;BME280;885;42.626;23.200;2023-07-13T07:35:38;171572.34;;;27.60;69.68
1776;BME280;885;42.626;23.200;2023-07-13T07:38:05;171604.25;;;27.71;69.08
1776;BME280;885;42.626;23.200;2023-07-13T07:40:36;171643.03;;;27.85;67.46
1776;BME280;885;42.626;23.200;2023-07-13T07:43:03;171676.31;;;27.97;67.35
1776;BME280;885;42.626;23.200;2023-07-13T07:45:30;170552.34;;;28.05;56.82
1776;BME280;885;42.626;23.200;2023-07-13T07:47:56;169835.00;;;28.22;54.17
1776;BME280;885;42.626;23.200;2023-07-13T07:50:24;169480.28;;;28.33;53.83
1776;BME280;885;42.626;23.200;2023-07-13T07:52:51;169498.06;;;28.39;54.82
1776;BME280;885;42.626;23.200;2023-07-13T07:55:18;169128.25;;;28.44;52.52
1776;BME280;885;42.626;23.200;2023-07-13T07:57:46;169160.97;;;28.56;51.87
1776;BME280;885;42.626;23.200;2023-07-13T08:00:14;169574.69;;;28.67;53.76
1776;BME280;885;42.626;23.200;2023-07-13T08:02:41;169193.75;;;28.68;52.52
1776;BME280;885;42.626;23.200;2023-07-13T08:05:08;170002.22;;;28.84;56.05
1776;BME280;885;42.626;23.200;2023-07-13T08:07:36;169647.13;;;28.94;52.96
1776;BME280;885;42.626;23.200;2023-07-13T08:10:03;168871.41;;;28.90;48.63
1776;BME280;885;42.626;23.200;2023-07-13T08:12:30;168842.84;;;28.79;51.15
1776;BME280;885;42.626;23.200;2023-07-13T08:15:02;168082.34;;;28.81;48.06
1776;BME280;885;42.626;23.200;2023-07-13T08:17:29;168505.34;;;28.96;49.53
1776;BME280;885;42.626;23.200;2023-07-13T08:19:56;168906.81;;;29.03;52.28
1776;BME280;885;42.626;23.200;2023-07-13T08:22:22;168152.81;;;29.07;47.49
1776;BME280;885;42.626;23.200;2023-07-13T08:24:49;168189.41;;;29.21;47.14
1776;BME280;885;42.626;23.200;2023-07-13T08:27:21;167816.41;;;29.24;48.11
1776;BME280;885;42.626;23.200;2023-07-13T08:29:48;167431.25;;;29.23;46.52
1776;BME280;885;42.626;23.200;2023-07-13T08:32:17;167455.56;;;29.32;46.23
1776;BME280;885;42.626;23.200;2023-07-13T08:34:44;167479.78;;;29.41;46.57
1776;BME280;885;42.626;23.200;2023-07-13T08:37:11;167091.88;;;29.39;44.12
1776;BME280;885;42.626;23.200;2023-07-13T08:39:38;167522.97;;;29.57;46.85
1776;BME280;885;42.626;23.200;2023-07-13T08:42:07;166789.94;;;29.69;42.82
1776;BME280;885;42.626;23.200;2023-07-13T08:44:43;167195.56;;;29.78;43.46
1776;BME280;885;42.626;23.200;2023-07-13T08:47:19;166875.94;;;30.02;41.91
1776;BME280;885;42.626;23.200;2023-07-13T08:49:48;166920.22;;;30.18;42.70
1776;BME280;885;42.626;23.200;2023-07-13T08:52:27;167346.31;;;30.34;42.87
1776;BME280;885;42.626;23.200;2023-07-13T08:54:56;168543.22;;;30.52;46.64
1776;BME280;885;42.626;23.200;2023-07-13T08:57:29;168574.41;;;30.64;45.98
1776;BME280;885;42.626;23.200;2023-07-13T09:00:00;168608.31;;;30.76;45.50
1776;BME280;885;42.626;23.200;2023-07-13T09:02:41;167849.53;;;30.79;42.66
1776;BME280;885;42.626;23.200;2023-07-13T09:05:12;168224.84;;;30.76;45.82
1776;BME280;885;42.626;23.200;2023-07-13T09:07:58;168643.63;;;30.89;45.28
1776;BME280;885;42.626;23.200;2023-07-13T09:10:31;168681.59;;;31.03;44.87
1776;BME280;885;42.626;23.200;2023-07-13T09:13:09;167433.78;;;30.67;42.68
1776;BME280;885;42.626;23.200;2023-07-13T09:15:43;168216.72;;;30.73;46.15
1776;BME280;885;42.626;23.200;2023-07-13T09:18:16;167129.78;;;30.97;40.77
1776;BME280;885;42.626;23.200;2023-07-13T09:20:50;167931.91;;;31.10;43.39
1776;BME280;885;42.626;23.200;2023-07-13T09:23:22;168353.41;;;31.24;44.01
1776;BME280;885;42.626;23.200;2023-07-13T09:25:53;167980.47;;;31.28;43.51
1776;BME280;885;42.626;23.200;2023-07-13T09:28:23;168407.63;;;31.44;44.21
1776;BME280;885;42.626;23.200;2023-07-13T09:30:56;168414.34;;;31.47;44.11
1776;BME280;885;42.626;23.200;2023-07-13T09:33:26;167668.16;;;31.55;41.17
1776;BME280;885;42.626;23.200;2023-07-13T09:35:56;168452.28;;;31.61;43.51
1776;BME280;885;42.626;23.200;2023-07-13T09:38:25;167311.25;;;31.65;39.76
1776;BME280;885;42.626;23.200;2023-07-13T09:41:01;166942.09;;;31.70;38.66
1776;BME280;885;42.626;23.200;2023-07-13T09:43:34;165736.00;;;31.50;37.64
1776;BME280;885;42.626;23.200;2023-07-13T09:46:01;166946.09;;;31.72;40.20
1776;BME280;885;42.626;23.200;2023-07-13T09:48:35;167788.13;;;31.99;41.73
1776;BME280;885;42.626;23.200;2023-07-13T09:51:09;168195.25;;;32.08;43.20
1776;BME280;885;42.626;23.200;2023-07-13T09:53:41;167027.97;;;32.02;39.82
1776;BME280;885;42.626;23.200;2023-07-13T09:56:19;167037.31;;;32.06;38.73
1776;BME280;885;42.626;23.200;2023-07-13T09:58:46;166215.75;;;31.86;37.86
1776;BME280;885;42.626;23.200;2023-07-13T10:01:12;164144.88;;;31.28;36.39
1776;BME280;885;42.626;23.200;2023-07-13T10:03:53;165336.41;;;31.44;39.85
1776;BME280;885;42.626;23.200;2023-07-13T10:06:21;166181.03;;;31.73;41.75
1776;BME280;885;42.626;23.200;2023-07-13T10:08:49;167780.06;;;31.96;44.52
1776;BME280;885;42.626;23.200;2023-07-13T10:11:19;166654.56;;;32.06;40.42
1776;BME280;885;42.626;23.200;2023-07-13T10:13:51;166679.97;;;32.16;40.43
1776;BME280;885;42.626;23.200;2023-07-13T10:16:19;166688.00;;;32.19;40.77
1776;BME280;885;42.626;23.200;2023-07-13T10:18:49;166309.19;;;32.21;38.62
1776;BME280;885;42.626;23.200;2023-07-13T10:21:18;166335.88;;;32.31;38.34
1776;BME280;885;42.626;23.200;2023-07-13T10:23:50;166741.50;;;32.39;39.87
1776;BME280;885;42.626;23.200;2023-07-13T10:26:22;165497.13;;;32.04;37.93
1776;BME280;885;42.626;23.200;2023-07-13T10:28:54;166704.06;;;32.25;41.24
1776;BME280;885;42.626;23.200;2023-07-13T10:31:23;166330.53;;;32.29;39.71
1776;BME280;885;42.626;23.200;2023-07-13T10:33:51;166733.50;;;32.36;41.92
1776;BME280;885;42.626;23.200;2023-07-13T10:36:27;166361.19;;;32.41;40.29
1776;BME280;885;42.626;23.200;2023-07-13T10:38:55;166391.97;;;32.52;40.20
1776;BME280;885;42.626;23.200;2023-07-13T10:41:26;166813.78;;;32.66;39.59
1776;BME280;885;42.626;23.200;2023-07-13T10:43:55;167230.47;;;32.78;41.09
1776;BME280;885;42.626;23.200;2023-07-13T10:46:25;167623.16;;;32.81;43.10
1776;BME280;885;42.626;23.200;2023-07-13T10:48:58;167179.53;;;32.59;42.62
1776;BME280;885;42.626;23.200;2023-07-13T10:51:26;168023.97;;;32.87;43.51
1776;BME280;885;42.626;23.200;2023-07-13T10:54:16;168075.25;;;33.07;43.81
1776;BME280;885;42.626;23.200;2023-07-13T10:56:45;167650.03;;;32.92;41.71
1776;BME280;885;42.626;23.200;2023-07-13T10:59:14;167274.72;;;32.95;41.54
1776;BME280;885;42.626;23.200;2023-07-13T11:01:55;166445.34;;;32.72;39.67
1776;BME280;885;42.626;23.200;2023-07-13T11:04:24;166374.56;;;32.46;41.62
1776;BME280;885;42.626;23.200;2023-07-13T11:06:57;166804.44;;;32.63;41.81
1776;BME280;885;42.626;23.200;2023-07-13T11:09:33;166394.63;;;32.53;41.32
1776;BME280;885;42.626;23.200;2023-07-13T11:12:06;166402.66;;;32.56;42.23
1776;BME280;885;42.626;23.200;2023-07-13T11:14:35;166410.69;;;32.59;41.03
1776;BME280;885;42.626;23.200;2023-07-13T11:17:35;165998.34;;;32.49;41.11
1776;BME280;885;42.626;23.200;2023-07-13T11:20:31;167230.47;;;32.78;42.62
1776;BME280;885;42.626;23.200;2023-07-13T11:23:27;166900.84;;;32.99;40.30
1776;BME280;885;42.626;23.200;2023-07-13T11:25:55;166916.91;;;33.05;41.00
1776;BME280;885;42.626;23.200;2023-07-13T11:28:25;166950.38;;;33.18;40.74
1776;BME280;885;42.626;23.200;2023-07-13T11:31:02;166585.59;;;33.25;39.33
1776;BME280;885;42.626;23.200;2023-07-13T11:33:49;167023.94;;;33.45;39.35
1776;BME280;885;42.626;23.200;2023-07-13T11:36:19;167689.09;;;33.06;44.62
1776;BME280;885;42.626;23.200;2023-07-13T11:38:55;166927.63;;;33.09;41.92
1776;BME280;885;42.626;23.200;2023-07-13T11:41:29;166562.88;;;33.17;40.41
1776;BME280;885;42.626;23.200;2023-07-13T11:44:05;166135.53;;;33.01;40.34
1776;BME280;885;42.626;23.200;2023-07-13T11:46:32;166963.72;;;33.23;41.75
1776;BME280;885;42.626;23.200;2023-07-13T11:48:59;167044.09;;;33.53;40.02
1776;BME280;885;42.626;23.200;2023-07-13T11:51:29;167868.00;;;33.73;42.10
1776;BME280;885;42.626;23.200;2023-07-13T11:53:58;167527.09;;;33.90;39.21
1776;BME280;885;42.626;23.200;2023-07-13T11:56:27;167139.16;;;33.89;38.37
1776;BME280;885;42.626;23.200;2023-07-13T11:58:56;167539.19;;;33.94;39.35
1776;BME280;885;42.626;23.200;2023-07-13T12:01:25;166768.59;;;33.94;37.60
1776;BME280;885;42.626;23.200;2023-07-13T12:03:54;166367.38;;;33.88;37.57
1776;BME280;885;42.626;23.200;2023-07-13T12:06:27;166795.34;;;34.04;38.37
1776;BME280;885;42.626;23.200;2023-07-13T12:08:58;167587.53;;;34.12;40.38
1776;BME280;885;42.626;23.200;2023-07-13T12:11:26;167180.69;;;34.04;39.09
1776;BME280;885;42.626;23.200;2023-07-13T12:13:53;167588.88;;;34.13;40.95
1776;BME280;885;42.626;23.200;2023-07-13T12:16:26;167964.94;;;34.09;41.38
1776;BME280;885;42.626;23.200;2023-07-13T12:18:54;167208.81;;;34.15;39.72
1776;BME280;885;42.626;23.200;2023-07-13T12:21:29;167186.03;;;34.06;39.16
1776;BME280;885;42.626;23.200;2023-07-13T12:23:57;166314.09;;;33.68;38.91
1776;BME280;885;42.626;23.200;2023-07-13T12:26:24;166366.03;;;33.88;38.59
1776;BME280;885;42.626;23.200;2023-07-13T12:28:53;165992.84;;;33.92;38.19
1776;BME280;885;42.626;23.200;2023-07-13T12:31:35;166794.06;;;34.04;39.07
1776;BME280;885;42.626;23.200;2023-07-13T12:34:07;166834.09;;;34.19;38.50
1776;BME280;885;42.626;23.200;2023-07-13T12:36:37;166822.13;;;34.14;39.56
1776;BME280;885;42.626;23.200;2023-07-13T12:39:13;166854.16;;;34.26;39.27
1776;BME280;885;42.626;23.200;2023-07-13T12:41:41;166023.50;;;34.04;37.90
1776;BME280;885;42.626;23.200;2023-07-13T12:44:12;165976.91;;;33.86;39.26
1776;BME280;885;42.626;23.200;2023-07-13T12:46:39;166420.72;;;34.08;38.80
1776;BME280;885;42.626;23.200;2023-07-13T12:49:07;166043.41;;;34.11;39.17
1776;BME280;885;42.626;23.200;2023-07-13T12:51:35;166059.38;;;34.17;38.17
1776;BME280;885;42.626;23.200;2023-07-13T12:54:13;165622.25;;;33.98;38.65
1776;BME280;885;42.626;23.200;2023-07-13T12:56:41;166051.44;;;34.14;39.13
1776;BME280;885;42.626;23.200;2023-07-13T12:59:16;164816.41;;;33.84;37.92
1776;BME280;885;42.626;23.200;2023-07-13T13:01:46;165209.34;;;33.87;39.04
1776;BME280;885;42.626;23.200;2023-07-13T13:04:15;164856.00;;;33.99;36.65
1776;BME280;885;42.626;23.200;2023-07-13T13:06:48;164863.94;;;34.02;37.21
1776;BME280;885;42.626;23.200;2023-07-13T13:09:17;165270.25;;;34.10;38.14
1776;BME280;885;42.626;23.200;2023-07-13T13:11:45;165270.25;;;34.10;39.14
1776;BME280;885;42.626;23.200;2023-07-13T13:14:12;164460.38;;;33.95;36.91
1776;BME280;885;42.626;23.200;2023-07-13T13:16:46;164874.50;;;34.06;38.73